sensor_id;sensor_type;location;lat;lon;timestamp;temperature;humidity
1011;DHT22;494;48.744;10.106;2023-07-28T00:00:07;19.40;29.00
1011;DHT22;494;48.744;10.106;2023-07-28T00:02:48;19.30;29.20
1011;DHT22;494;48.744;10.106;2023-07-28T00:05:17;19.20;29.10
1011;DHT22;494;48.744;10.106;2023-07-28T00:07:46;19.20;29.10
1011;DHT22;494;48.744;10.106;2023-07-28T00:10:15;19.20;29.60
1011;DHT22;494;48.744;10.106;2023-07-28T00:12:43;19.20;28.90
1011;DHT22;494;48.744;10.106;2023-07-28T00:15:16;19.20;28.80
1011;DHT22;494;48.744;10.106;2023-07-28T00:17:45;19.00;28.90
1011;DHT22;494;48.744;10.106;2023-07-28T00:20:15;18.90;29.10
1011;DHT22;494;48.744;10.106;2023-07-28T00:22:44;18.90;29.20
1011;DHT22;494;48.744;10.106;2023-07-28T00:25:13;18.80;29.20
1011;DHT22;494;48.744;10.106;2023-07-28T00:27:42;18.70;30.20
1011;DHT22;494;48.744;10.106;2023-07-28T00:30:13;18.70;29.70
1011;DHT22;494;48.744;10.106;2023-07-28T00:32:49;18.70;29.70
1011;DHT22;494;48.744;10.106;2023-07-28T00:35:21;18.60;29.60
1011;DHT22;494;48.744;10.106;2023-07-28T00:37:50;18.60;29.40
1011;DHT22;494;48.744;10.106;2023-07-28T00:40:18;18.50;29.60
1011;DHT22;494;48.744;10.106;2023-07-28T00:42:49;18.50;29.70
1011;DHT22;494;48.744;10.106;2023-07-28T00:45:22;18.40;29.50
1011;DHT22;494;48.744;10.106;2023-07-28T00:47:53;18.30;29.90
1011;DHT22;494;48.744;10.106;2023-07-28T00:50:25;18.30;29.90
1011;DHT22;494;48.744;10.106;2023-07-28T00:52:55;18.30;29.50
1011;DHT22;494;48.744;10.106;2023-07-28T00:55:24;18.30;29.50
1011;DHT22;494;48.744;10.106;2023-07-28T00:57:52;18.30;29.50
1011;DHT22;494;48.744;10.106;2023-07-28T01:00:22;18.30;29.50
1011;DHT22;494;48.744;10.106;2023-07-28T01:02:56;18.20;29.40
1011;DHT22;494;48.744;10.106;2023-07-28T01:05:31;18.20;29.40
1011;DHT22;494;48.744;10.106;2023-07-28T01:08:14;18.20;30.10
1011;DHT22;494;48.744;10.106;2023-07-28T01:10:51;18.20;29.40
1011;DHT22;494;48.744;10.106;2023-07-28T01:13:20;18.10;29.40
1011;DHT22;494;48.744;10.106;2023-07-28T01:15:52;18.20;29.40
1011;DHT22;494;48.744;10.106;2023-07-28T01:18:23;18.20;29.10
1011;DHT22;494;48.744;10.106;2023-07-28T01:20:53;18.10;28.90
1011;DHT22;494;48.744;10.106;2023-07-28T01:23:36;18.10;28.90
1011;DHT22;494;48.744;10.106;2023-07-28T01:26:11;18.10;28.90
1011;DHT22;494;48.744;10.106;2023-07-28T01:28:46;18.10;28.60
1011;DHT22;494;48.744;10.106;2023-07-28T01:31:17;18.00;28.60
1011;DHT22;494;48.744;10.106;2023-07-28T01:33:47;18.00;28.70
1011;DHT22;494;48.744;10.106;2023-07-28T01:36:17;17.90;28.80
1011;DHT22;494;48.744;10.106;2023-07-28T01:38:49;18.00;28.70
1011;DHT22;494;48.744;10.106;2023-07-28T01:42:03;17.90;28.80
1011;DHT22;494;48.744;10.106;2023-07-28T01:44:34;17.90;28.50
1011;DHT22;494;48.744;10.106;2023-07-28T01:47:05;17.90;28.40
1011;DHT22;494;48.744;10.106;2023-07-28T01:49:34;17.80;28.30
1011;DHT22;494;48.744;10.106;2023-07-28T01:52:06;17.80;28.40
1011;DHT22;494;48.744;10.106;2023-07-28T01:54:35;17.80;28.60
1011;DHT22;494;48.744;10.106;2023-07-28T01:57:05;17.80;28.60
1011;DHT22;494;48.744;10.106;2023-07-28T01:59:36;17.80;28.60
1011;DHT22;494;48.744;10.106;2023-07-28T02:02:06;17.70;28.70
1011;DHT22;494;48.744;10.106;2023-07-28T02:04:35;17.70;28.80
1011;DHT22;494;48.744;10.106;2023-07-28T02:07:06;17.60;28.80
1011;DHT22;494;48.744;10.106;2023-07-28T02:09:39;17.60;29.10
1011;DHT22;494;48.744;10.106;2023-07-28T02:12:10;17.60;29.10
1011;DHT22;494;48.744;10.106;2023-07-28T02:14:40;17.60;29.10
1011;DHT22;494;48.744;10.106;2023-07-28T02:17:09;17.60;29.10
1011;DHT22;494;48.744;10.106;2023-07-28T02:19:38;17.50;29.20
1011;DHT22;494;48.744;10.106;2023-07-28T02:22:06;17.40;29.00
1011;DHT22;494;48.744;10.106;2023-07-28T02:24:35;17.40;28.90
1011;DHT22;494;48.744;10.106;2023-07-28T02:27:05;17.40;28.80
1011;DHT22;494;48.744;10.106;2023-07-28T02:29:34;17.30;29.00
1011;DHT22;494;48.744;10.106;2023-07-28T02:32:07;17.30;29.60
1011;DHT22;494;48.744;10.106;2023-07-28T02:34:36;17.30;30.20
1011;DHT22;494;48.744;10.106;2023-07-28T02:37:06;17.30;30.80
1011;DHT22;494;48.744;10.106;2023-07-28T02:39:34;17.30;30.80
1011;DHT22;494;48.744;10.106;2023-07-28T02:42:04;17.40;30.40
1011;DHT22;494;48.744;10.106;2023-07-28T02:44:33;17.30;30.10
1011;DHT22;494;48.744;10.106;2023-07-28T02:47:02;17.40;30.30
1011;DHT22;494;48.744;10.106;2023-07-28T02:49:33;17.40;30.20
1011;DHT22;494;48.744;10.106;2023-07-28T02:52:03;17.40;30.20
1011;DHT22;494;48.744;10.106;2023-07-28T02:54:32;17.30;30.20
1011;DHT22;494;48.744;10.106;2023-07-28T02:57:01;17.30;30.20
1011;DHT22;494;48.744;10.106;2023-07-28T02:59:30;17.20;30.00
1011;DHT22;494;48.744;10.106;2023-07-28T03:01:59;17.20;30.10
1011;DHT22;494;48.744;10.106;2023-07-28T03:04:27;17.20;29.90
1011;DHT22;494;48.744;10.106;2023-07-28T03:06:58;17.20;29.60
1011;DHT22;494;48.744;10.106;2023-07-28T03:09:28;17.20;29.00
1011;DHT22;494;48.744;10.106;2023-07-28T03:11:57;17.10;29.00
1011;DHT22;494;48.744;10.106;2023-07-28T03:14:26;17.00;28.90
1011;DHT22;494;48.744;10.106;2023-07-28T03:16:56;17.00;28.90
1011;DHT22;494;48.744;10.106;2023-07-28T03:19:25;16.90;28.70
1011;DHT22;494;48.744;10.106;2023-07-28T03:21:53;16.80;28.40
1011;DHT22;494;48.744;10.106;2023-07-28T03:24:24;16.80;28.70
1011;DHT22;494;48.744;10.106;2023-07-28T03:26:53;16.90;28.90
1011;DHT22;494;48.744;10.106;2023-07-28T03:29:22;16.90;28.90
1011;DHT22;494;48.744;10.106;2023-07-28T03:31:51;16.90;27.80
1011;DHT22;494;48.744;10.106;2023-07-28T03:34:21;17.00;15.40
1011;DHT22;494;48.744;10.106;2023-07-28T03:36:50;16.90;15.40
1011;DHT22;494;48.744;10.106;2023-07-28T03:39:19;16.90;15.40
1011;DHT22;494;48.744;10.106;2023-07-28T03:41:49;16.80;15.30
1011;DHT22;494;48.744;10.106;2023-07-28T03:44:19;16.80;15.40
1011;DHT22;494;48.744;10.106;2023-07-28T03:46:53;16.90;15.40
1011;DHT22;494;48.744;10.106;2023-07-28T03:49:22;16.80;15.50
1011;DHT22;494;48.744;10.106;2023-07-28T03:51:51;16.80;16.00
1011;DHT22;494;48.744;10.106;2023-07-28T03:54:20;16.90;16.20
1011;DHT22;494;48.744;10.106;2023-07-28T03:56:51;16.80;16.20
1011;DHT22;494;48.744;10.106;2023-07-28T03:59:20;16.80;16.10
1011;DHT22;494;48.744;10.106;2023-07-28T04:01:49;16.80;15.60
1011;DHT22;494;48.744;10.106;2023-07-28T04:04:19;16.80;15.40
1011;DHT22;494;48.744;10.106;2023-07-28T04:06:49;16.80;15.30
1011;DHT22;494;48.744;10.106;2023-07-28T04:09:20;16.80;15.30
1011;DHT22;494;48.744;10.106;2023-07-28T04:11:51;16.80;15.30
1011;DHT22;494;48.744;10.106;2023-07-28T04:14:20;16.90;15.40
1011;DHT22;494;48.744;10.106;2023-07-28T04:16:50;16.90;15.40
1011;DHT22;494;48.744;10.106;2023-07-28T04:19:19;17.00;15.40
1011;DHT22;494;48.744;10.106;2023-07-28T04:21:48;17.00;15.40
1011;DHT22;494;48.744;10.106;2023-07-28T04:24:17;17.00;16.00
1011;DHT22;494;48.744;10.106;2023-07-28T04:26:46;17.00;16.20
1011;DHT22;494;48.744;10.106;2023-07-28T04:29:18;17.10;16.20
1011;DHT22;494;48.744;10.106;2023-07-28T04:31:48;17.10;16.30
1011;DHT22;494;48.744;10.106;2023-07-28T04:34:17;17.20;16.10
1011;DHT22;494;48.744;10.106;2023-07-28T04:36:46;17.20;16.10
1011;DHT22;494;48.744;10.106;2023-07-28T04:39:15;17.30;16.10
1011;DHT22;494;48.744;10.106;2023-07-28T04:41:44;17.30;15.60
1011;DHT22;494;48.744;10.106;2023-07-28T04:44:12;17.40;15.50
1011;DHT22;494;48.744;10.106;2023-07-28T04:46:43;17.40;15.80
1011;DHT22;494;48.744;10.106;2023-07-28T04:49:14;17.30;15.60
1011;DHT22;494;48.744;10.106;2023-07-28T04:51:43;17.40;15.50
1011;DHT22;494;48.744;10.106;2023-07-28T04:54:12;17.40;14.90
1011;DHT22;494;48.744;10.106;2023-07-28T04:56:41;17.40;14.80
1011;DHT22;494;48.744;10.106;2023-07-28T04:59:10;17.40;14.90
1011;DHT22;494;48.744;10.106;2023-07-28T05:01:43;17.40;14.70
1011;DHT22;494;48.744;10.106;2023-07-28T05:04:12;17.40;14.60
1011;DHT22;494;48.744;10.106;2023-07-28T05:06:41;17.40;15.10
1011;DHT22;494;48.744;10.106;2023-07-28T05:09:10;17.40;15.40
1011;DHT22;494;48.744;10.106;2023-07-28T05:11:40;17.50;15.50
1011;DHT22;494;48.744;10.106;2023-07-28T05:14:09;17.60;15.60
1011;DHT22;494;48.744;10.106;2023-07-28T05:16:38;17.60;15.60
1011;DHT22;494;48.744;10.106;2023-07-28T05:19:14;17.60;15.80
1011;DHT22;494;48.744;10.106;2023-07-28T05:21:43;17.70;15.70
1011;DHT22;494;48.744;10.106;2023-07-28T05:24:12;17.80;15.70
1011;DHT22;494;48.744;10.106;2023-07-28T05:26:41;17.80;15.50
1011;DHT22;494;48.744;10.106;2023-07-28T05:29:10;17.80;15.40
1011;DHT22;494;48.744;10.106;2023-07-28T05:31:39;17.90;15.60
1011;DHT22;494;48.744;10.106;2023-07-28T05:34:11;18.00;15.20
1011;DHT22;494;48.744;10.106;2023-07-28T05:36:40;18.10;15.10
1011;DHT22;494;48.744;10.106;2023-07-28T05:39:09;18.20;14.80
1011;DHT22;494;48.744;10.106;2023-07-28T05:41:42;18.20;14.40
1011;DHT22;494;48.744;10.106;2023-07-28T05:44:11;18.20;14.40
1011;DHT22;494;48.744;10.106;2023-07-28T05:46:40;18.30;14.50
1011;DHT22;494;48.744;10.106;2023-07-28T05:49:11;18.20;14.30
1011;DHT22;494;48.744;10.106;2023-07-28T05:51:43;18.20;14.70
1011;DHT22;494;48.744;10.106;2023-07-28T05:54:13;18.20;15.20
1011;DHT22;494;48.744;10.106;2023-07-28T05:56:43;18.10;15.50
1011;DHT22;494;48.744;10.106;2023-07-28T05:59:12;18.20;15.80
1011;DHT22;494;48.744;10.106;2023-07-28T06:01:41;18.20;15.80
1011;DHT22;494;48.744;10.106;2023-07-28T06:04:11;18.20;15.80
1011;DHT22;494;48.744;10.106;2023-07-28T06:06:41;18.30;15.90
1011;DHT22;494;48.744;10.106;2023-07-28T06:09:10;18.40;15.90
1011;DHT22;494;48.744;10.106;2023-07-28T06:11:39;18.40;15.90
1011;DHT22;494;48.744;10.106;2023-07-28T06:14:08;18.50;16.00
1011;DHT22;494;48.744;10.106;2023-07-28T06:16:38;18.50;15.90
1011;DHT22;494;48.744;10.106;2023-07-28T06:19:07;18.50;15.90
1011;DHT22;494;48.744;10.106;2023-07-28T06:21:38;18.30;15.90
1011;DHT22;494;48.744;10.106;2023-07-28T06:24:07;18.30;17.10
1011;DHT22;494;48.744;10.106;2023-07-28T06:26:38;18.40;17.40
1011;DHT22;494;48.744;10.106;2023-07-28T06:29:09;18.50;17.90
1011;DHT22;494;48.744;10.106;2023-07-28T06:31:38;18.60;17.80
1011;DHT22;494;48.744;10.106;2023-07-28T06:34:11;18.60;17.20
1011;DHT22;494;48.744;10.106;2023-07-28T06:36:41;18.70;17.00
1011;DHT22;494;48.744;10.106;2023-07-28T06:39:11;18.80;16.80
1011;DHT22;494;48.744;10.106;2023-07-28T06:41:43;18.90;16.70
1011;DHT22;494;48.744;10.106;2023-07-28T06:44:13;18.90;16.90
1011;DHT22;494;48.744;10.106;2023-07-28T06:46:58;18.90;16.50
1011;DHT22;494;48.744;10.106;2023-07-28T06:49:29;18.80;16.20
1011;DHT22;494;48.744;10.106;2023-07-28T06:52:00;18.90;16.20
1011;DHT22;494;48.744;10.106;2023-07-28T06:54:30;18.90;16.50
1011;DHT22;494;48.744;10.106;2023-07-28T06:57:04;19.00;16.10
1011;DHT22;494;48.744;10.106;2023-07-28T06:59:34;19.10;16.50
1011;DHT22;494;48.744;10.106;2023-07-28T07:02:11;19.20;16.70
1011;DHT22;494;48.744;10.106;2023-07-28T07:04:54;19.20;16.60
1011;DHT22;494;48.744;10.106;2023-07-28T07:07:54;19.30;17.40
1011;DHT22;494;48.744;10.106;2023-07-28T07:10:23;19.40;16.90
1011;DHT22;494;48.744;10.106;2023-07-28T07:12:53;19.50;16.90
1011;DHT22;494;48.744;10.106;2023-07-28T07:15:25;19.60;16.50
1011;DHT22;494;48.744;10.106;2023-07-28T07:17:57;19.60;16.30
1011;DHT22;494;48.744;10.106;2023-07-28T07:20:28;19.70;16.30
1011;DHT22;494;48.744;10.106;2023-07-28T07:23:04;19.60;16.10
1011;DHT22;494;48.744;10.106;2023-07-28T07:25:33;19.60;16.30
1011;DHT22;494;48.744;10.106;2023-07-28T07:28:04;19.70;16.40
1011;DHT22;494;48.744;10.106;2023-07-28T07:30:35;19.70;16.40
1011;DHT22;494;48.744;10.106;2023-07-28T07:33:04;19.80;16.60
1011;DHT22;494;48.744;10.106;2023-07-28T07:35:36;19.90;16.60
1011;DHT22;494;48.744;10.106;2023-07-28T07:38:08;20.00;16.50
1011;DHT22;494;48.744;10.106;2023-07-28T07:40:37;20.20;16.50
1011;DHT22;494;48.744;10.106;2023-07-28T07:43:06;20.30;16.60
1011;DHT22;494;48.744;10.106;2023-07-28T07:45:36;20.50;16.50
1011;DHT22;494;48.744;10.106;2023-07-28T07:48:05;20.70;15.70
1011;DHT22;494;48.744;10.106;2023-07-28T07:50:36;20.80;14.90
1011;DHT22;494;48.744;10.106;2023-07-28T07:53:07;21.00;13.90
1011;DHT22;494;48.744;10.106;2023-07-28T07:55:36;21.20;13.50
1011;DHT22;494;48.744;10.106;2023-07-28T07:58:07;21.20;12.80
1011;DHT22;494;48.744;10.106;2023-07-28T08:00:37;21.30;12.90
1011;DHT22;494;48.744;10.106;2023-07-28T08:03:07;21.40;13.00
1011;DHT22;494;48.744;10.106;2023-07-28T08:05:37;21.50;13.00
1011;DHT22;494;48.744;10.106;2023-07-28T08:08:07;21.60;12.50
1011;DHT22;494;48.744;10.106;2023-07-28T08:10:39;21.90;12.50
1011;DHT22;494;48.744;10.106;2023-07-28T08:13:08;22.10;11.10
1011;DHT22;494;48.744;10.106;2023-07-28T08:15:37;22.40;11.30
1011;DHT22;494;48.744;10.106;2023-07-28T08:18:06;22.80;10.60
1011;DHT22;494;48.744;10.106;2023-07-28T08:20:36;23.20;10.60
1011;DHT22;494;48.744;10.106;2023-07-28T08:23:04;23.60;6.30
1011;DHT22;494;48.744;10.106;2023-07-28T08:25:36;23.90;6.70
1011;DHT22;494;48.744;10.106;2023-07-28T08:28:06;24.20;4.90
1011;DHT22;494;48.744;10.106;2023-07-28T08:30:35;24.40;3.60
1011;DHT22;494;48.744;10.106;2023-07-28T08:33:04;24.60;3.60
1011;DHT22;494;48.744;10.106;2023-07-28T08:35:34;24.80;4.00
1011;DHT22;494;48.744;10.106;2023-07-28T08:38:04;25.00;1.80
1011;DHT22;494;48.744;10.106;2023-07-28T08:40:37;25.20;1.00
1011;DHT22;494;48.744;10.106;2023-07-28T08:43:06;25.30;1.00
1011;DHT22;494;48.744;10.106;2023-07-28T08:45:35;25.10;1.00
1011;DHT22;494;48.744;10.106;2023-07-28T08:48:05;24.80;1.00
1011;DHT22;494;48.744;10.106;2023-07-28T08:50:35;24.80;1.00
1011;DHT22;494;48.744;10.106;2023-07-28T08:53:04;25.00;1.00
1011;DHT22;494;48.744;10.106;2023-07-28T08:55:35;25.10;1.00
1011;DHT22;494;48.744;10.106;2023-07-28T08:58:14;25.20;1.00
1011;DHT22;494;48.744;10.106;2023-07-28T09:00:44;25.40;1.00
1011;DHT22;494;48.744;10.106;2023-07-28T09:03:17;25.40;1.00
1011;DHT22;494;48.744;10.106;2023-07-28T09:05:47;25.40;1.00
1011;DHT22;494;48.744;10.106;2023-07-28T09:08:18;25.30;1.00
1011;DHT22;494;48.744;10.106;2023-07-28T09:10:51;25.10;1.00
1011;DHT22;494;48.744;10.106;2023-07-28T09:13:21;24.80;1.00
1011;DHT22;494;48.744;10.106;2023-07-28T09:15:50;24.40;1.00
1011;DHT22;494;48.744;10.106;2023-07-28T09:18:18;24.10;1.00
1011;DHT22;494;48.744;10.106;2023-07-28T09:20:49;24.00;1.00
1011;DHT22;494;48.744;10.106;2023-07-28T09:23:28;24.20;1.00
1011;DHT22;494;48.744;10.106;2023-07-28T09:26:01;24.30;1.00
1011;DHT22;494;48.744;10.106;2023-07-28T09:28:40;24.40;1.00
1011;DHT22;494;48.744;10.106;2023-07-28T09:31:10;24.60;1.00
1011;DHT22;494;48.744;10.106;2023-07-28T09:33:41;24.80;1.00
1011;DHT22;494;48.744;10.106;2023-07-28T09:36:14;24.80;1.00
1011;DHT22;494;48.744;10.106;2023-07-28T09:38:45;24.80;1.00
1011;DHT22;494;48.744;10.106;2023-07-28T09:41:18;24.50;1.00
1011;DHT22;494;48.744;10.106;2023-07-28T09:43:48;24.70;1.00
1011;DHT22;494;48.744;10.106;2023-07-28T09:46:19;24.60;1.00
1011;DHT22;494;48.744;10.106;2023-07-28T09:48:52;24.60;1.00
1011;DHT22;494;48.744;10.106;2023-07-28T09:51:30;24.30;1.00
1011;DHT22;494;48.744;10.106;2023-07-28T09:54:04;24.20;1.00
1011;DHT22;494;48.744;10.106;2023-07-28T09:56:37;24.10;1.00
1011;DHT22;494;48.744;10.106;2023-07-28T09:59:11;24.20;1.00
1011;DHT22;494;48.744;10.106;2023-07-28T10:01:41;24.10;1.00
1011;DHT22;494;48.744;10.106;2023-07-28T10:04:15;24.20;1.00
1011;DHT22;494;48.744;10.106;2023-07-28T10:06:45;24.50;1.00
1011;DHT22;494;48.744;10.106;2023-07-28T10:09:15;24.80;1.00
1011;DHT22;494;48.744;10.106;2023-07-28T10:11:46;24.70;1.00
1011;DHT22;494;48.744;10.106;2023-07-28T10:14:25;24.50;1.00
1011;DHT22;494;48.744;10.106;2023-07-28T10:16:56;24.60;1.00
1011;DHT22;494;48.744;10.106;2023-07-28T10:19:26;24.90;1.00
1011;DHT22;494;48.744;10.106;2023-07-28T10:22:01;25.10;1.00
1011;DHT22;494;48.744;10.106;2023-07-28T10:24:52;25.20;1.00
1011;DHT22;494;48.744;10.106;2023-07-28T10:27:35;25.60;1.00
1011;DHT22;494;48.744;10.106;2023-07-28T10:30:12;26.10;1.00
1011;DHT22;494;48.744;10.106;2023-07-28T10:32:44;26.50;1.00
1011;DHT22;494;48.744;10.106;2023-07-28T10:35:25;26.80;1.00
1011;DHT22;494;48.744;10.106;2023-07-28T10:37:56;27.10;1.00
1011;DHT22;494;48.744;10.106;2023-07-28T10:40:29;27.10;1.00
1011;DHT22;494;48.744;10.106;2023-07-28T10:43:05;27.20;1.00
1011;DHT22;494;48.744;10.106;2023-07-28T10:45:33;27.30;1.00
1011;DHT22;494;48.744;10.106;2023-07-28T10:48:03;27.50;1.00
1011;DHT22;494;48.744;10.106;2023-07-28T10:50:33;27.30;1.00
1011;DHT22;494;48.744;10.106;2023-07-28T10:53:04;27.20;1.00
1011;DHT22;494;48.744;10.106;2023-07-28T10:55:33;27.10;1.00
1011;DHT22;494;48.744;10.106;2023-07-28T11:01:30;26.50;1.00
1011;DHT22;494;48.744;10.106;2023-07-28T11:04:08;26.20;1.00
1011;DHT22;494;48.744;10.106;2023-07-28T11:06:40;26.10;1.00
1011;DHT22;494;48.744;10.106;2023-07-28T11:09:11;26.30;1.00
1011;DHT22;494;48.744;10.106;2023-07-28T11:11:47;26.50;1.00
1011;DHT22;494;48.744;10.106;2023-07-28T11:14:18;26.60;1.00
1011;DHT22;494;48.744;10.106;2023-07-28T11:16:49;26.90;1.00
1011;DHT22;494;48.744;10.106;2023-07-28T11:19:19;27.30;1.00
1011;DHT22;494;48.744;10.106;2023-07-28T11:21:53;27.90;1.00
1011;DHT22;494;48.744;10.106;2023-07-28T11:24:25;28.10;1.00
1011;DHT22;494;48.744;10.106;2023-07-28T11:26:54;27.90;1.00
1011;DHT22;494;48.744;10.106;2023-07-28T11:29:28;27.90;1.00
1011;DHT22;494;48.744;10.106;2023-07-28T11:32:00;27.50;1.00
1011;DHT22;494;48.744;10.106;2023-07-28T11:34:35;27.10;1.00
1011;DHT22;494;48.744;10.106;2023-07-28T11:37:07;26.80;1.00
1011;DHT22;494;48.744;10.106;2023-07-28T11:39:37;26.80;1.00
1011;DHT22;494;48.744;10.106;2023-07-28T11:42:09;26.80;1.00
1011;DHT22;494;48.744;10.106;2023-07-28T11:44:38;26.80;1.00
1011;DHT22;494;48.744;10.106;2023-07-28T11:47:16;26.90;1.00
1011;DHT22;494;48.744;10.106;2023-07-28T11:49:46;27.00;1.00
1011;DHT22;494;48.744;10.106;2023-07-28T11:52:16;27.30;1.00
1011;DHT22;494;48.744;10.106;2023-07-28T11:54:49;27.50;1.00
1011;DHT22;494;48.744;10.106;2023-07-28T11:57:25;28.10;1.00
1011;DHT22;494;48.744;10.106;2023-07-28T11:59:55;28.60;14.40
1011;DHT22;494;48.744;10.106;2023-07-28T12:02:31;28.80;57.30
1011;DHT22;494;48.744;10.106;2023-07-28T12:05:01;28.90;1.00
1011;DHT22;494;48.744;10.106;2023-07-28T12:07:47;28.80;1.00
1011;DHT22;494;48.744;10.106;2023-07-28T12:10:16;28.60;1.00
1011;DHT22;494;48.744;10.106;2023-07-28T12:13:07;28.20;1.00
1011;DHT22;494;48.744;10.106;2023-07-28T12:15:41;27.70;70.10
1011;DHT22;494;48.744;10.106;2023-07-28T12:18:15;27.20;99.90
1011;DHT22;494;48.744;10.106;2023-07-28T12:20:53;27.10;99.90
1011;DHT22;494;48.744;10.106;2023-07-28T12:23:24;27.20;1.00
1011;DHT22;494;48.744;10.106;2023-07-28T12:25:56;27.10;1.00
1011;DHT22;494;48.744;10.106;2023-07-28T12:28:25;27.00;1.00
1011;DHT22;494;48.744;10.106;2023-07-28T12:30:54;26.70;1.00
1011;DHT22;494;48.744;10.106;2023-07-28T12:33:29;26.60;1.00
1011;DHT22;494;48.744;10.106;2023-07-28T12:36:08;26.40;1.00
1011;DHT22;494;48.744;10.106;2023-07-28T12:38:41;26.30;1.00
1011;DHT22;494;48.744;10.106;2023-07-28T12:41:10;26.40;1.00
1011;DHT22;494;48.744;10.106;2023-07-28T12:43:48;26.30;99.90
1011;DHT22;494;48.744;10.106;2023-07-28T12:46:22;26.40;25.50
1011;DHT22;494;48.744;10.106;2023-07-28T12:48:54;26.50;1.00
1011;DHT22;494;48.744;10.106;2023-07-28T12:51:26;26.60;1.00
1011;DHT22;494;48.744;10.106;2023-07-28T12:53:57;26.70;1.00
1011;DHT22;494;48.744;10.106;2023-07-28T12:56:27;26.70;1.00
1011;DHT22;494;48.744;10.106;2023-07-28T12:58:58;26.60;1.00
1011;DHT22;494;48.744;10.106;2023-07-28T13:01:32;26.50;1.00
1011;DHT22;494;48.744;10.106;2023-07-28T13:04:04;26.50;1.00
1011;DHT22;494;48.744;10.106;2023-07-28T13:06:34;26.50;97.10
1011;DHT22;494;48.744;10.106;2023-07-28T13:09:04;26.30;1.00
1011;DHT22;494;48.744;10.106;2023-07-28T13:11:37;26.30;1.00
1011;DHT22;494;48.744;10.106;2023-07-28T13:14:10;26.20;1.00
1011;DHT22;494;48.744;10.106;2023-07-28T13:16:40;26.20;94.40
1011;DHT22;494;48.744;10.106;2023-07-28T13:19:15;26.10;1.00
1011;DHT22;494;48.744;10.106;2023-07-28T13:21:44;26.00;54.70
1011;DHT22;494;48.744;10.106;2023-07-28T13:24:14;25.90;1.00
1011;DHT22;494;48.744;10.106;2023-07-28T13:26:45;25.70;1.00
1011;DHT22;494;48.744;10.106;2023-07-28T13:29:18;25.60;1.00
1011;DHT22;494;48.744;10.106;2023-07-28T13:31:49;25.50;1.00
1011;DHT22;494;48.744;10.106;2023-07-28T13:34:19;25.50;1.00
1011;DHT22;494;48.744;10.106;2023-07-28T13:36:49;25.60;1.00
1011;DHT22;494;48.744;10.106;2023-07-28T13:39:19;25.60;1.00
1011;DHT22;494;48.744;10.106;2023-07-28T13:41:51;25.40;1.00
1011;DHT22;494;48.744;10.106;2023-07-28T13:44:22;25.50;1.00
1011;DHT22;494;48.744;10.106;2023-07-28T13:46:58;25.50;1.00
1011;DHT22;494;48.744;10.106;2023-07-28T13:49:30;25.60;1.00
1011;DHT22;494;48.744;10.106;2023-07-28T13:52:18;25.70;1.00
1011;DHT22;494;48.744;10.106;2023-07-28T13:54:49;25.70;1.00
1011;DHT22;494;48.744;10.106;2023-07-28T13:57:21;25.70;1.00
1011;DHT22;494;48.744;10.106;2023-07-28T13:59:52;25.70;91.40
1011;DHT22;494;48.744;10.106;2023-07-28T14:02:21;25.70;1.00
1011;DHT22;494;48.744;10.106;2023-07-28T14:04:55;25.70;1.00
1011;DHT22;494;48.744;10.106;2023-07-28T14:07:24;25.70;1.00
1011;DHT22;494;48.744;10.106;2023-07-28T14:09:53;25.50;1.00
1011;DHT22;494;48.744;10.106;2023-07-28T14:12:23;25.20;1.00
1011;DHT22;494;48.744;10.106;2023-07-28T14:14:55;25.10;1.00
1011;DHT22;494;48.744;10.106;2023-07-28T14:17:25;25.00;1.00
1011;DHT22;494;48.744;10.106;2023-07-28T14:20:16;24.90;1.00
1011;DHT22;494;48.744;10.106;2023-07-28T14:22:46;24.80;1.00
1011;DHT22;494;48.744;10.106;2023-07-28T14:25:16;24.90;1.00
1011;DHT22;494;48.744;10.106;2023-07-28T14:27:47;24.90;1.00
1011;DHT22;494;48.744;10.106;2023-07-28T14:30:18;24.90;1.00
1011;DHT22;494;48.744;10.106;2023-07-28T14:32:50;25.00;1.00
1011;DHT22;494;48.744;10.106;2023-07-28T14:35:25;25.10;1.00
1011;DHT22;494;48.744;10.106;2023-07-28T14:37:55;25.10;1.00
1011;DHT22;494;48.744;10.106;2023-07-28T14:40:24;25.10;1.00
1011;DHT22;494;48.744;10.106;2023-07-28T14:42:57;25.20;1.00
1011;DHT22;494;48.744;10.106;2023-07-28T14:45:26;25.20;1.00
1011;DHT22;494;48.744;10.106;2023-07-28T14:47:56;25.10;1.00
1011;DHT22;494;48.744;10.106;2023-07-28T14:50:27;25.20;1.00
1011;DHT22;494;48.744;10.106;2023-07-28T14:52:58;25.10;1.00
1011;DHT22;494;48.744;10.106;2023-07-28T14:55:31;25.00;1.00
1011;DHT22;494;48.744;10.106;2023-07-28T14:58:02;24.90;1.00
1011;DHT22;494;48.744;10.106;2023-07-28T15:00:33;24.80;1.00
1011;DHT22;494;48.744;10.106;2023-07-28T15:03:04;24.70;1.00
1011;DHT22;494;48.744;10.106;2023-07-28T15:05:38;24.70;1.00
1011;DHT22;494;48.744;10.106;2023-07-28T15:08:07;24.50;1.00
1011;DHT22;494;48.744;10.106;2023-07-28T15:10:37;24.40;1.00
1011;DHT22;494;48.744;10.106;2023-07-28T15:13:10;24.40;1.00
1011;DHT22;494;48.744;10.106;2023-07-28T15:15:39;24.50;1.00
1011;DHT22;494;48.744;10.106;2023-07-28T15:18:08;24.40;1.00
1011;DHT22;494;48.744;10.106;2023-07-28T15:20:48;24.40;1.00
1011;DHT22;494;48.744;10.106;2023-07-28T15:23:24;24.40;1.00
1011;DHT22;494;48.744;10.106;2023-07-28T15:25:53;24.40;1.00
1011;DHT22;494;48.744;10.106;2023-07-28T15:28:24;24.30;1.00
1011;DHT22;494;48.744;10.106;2023-07-28T15:30:53;24.20;1.00
1011;DHT22;494;48.744;10.106;2023-07-28T15:33:23;24.20;1.00
1011;DHT22;494;48.744;10.106;2023-07-28T15:35:53;24.10;1.00
1011;DHT22;494;48.744;10.106;2023-07-28T15:38:23;24.10;1.00
1011;DHT22;494;48.744;10.106;2023-07-28T15:40:52;24.20;1.00
1011;DHT22;494;48.744;10.106;2023-07-28T15:43:25;24.20;1.00
1011;DHT22;494;48.744;10.106;2023-07-28T15:45:54;24.20;1.00
1011;DHT22;494;48.744;10.106;2023-07-28T15:48:23;24.30;4.00
1011;DHT22;494;48.744;10.106;2023-07-28T15:50:54;24.30;1.00
1011;DHT22;494;48.744;10.106;2023-07-28T15:53:24;24.30;1.00
1011;DHT22;494;48.744;10.106;2023-07-28T15:55:53;24.40;1.00
1011;DHT22;494;48.744;10.106;2023-07-28T15:58:22;24.50;1.00
1011;DHT22;494;48.744;10.106;2023-07-28T16:00:51;24.60;1.00
1011;DHT22;494;48.744;10.106;2023-07-28T16:03:21;24.70;1.00
1011;DHT22;494;48.744;10.106;2023-07-28T16:05:51;24.80;1.00
1011;DHT22;494;48.744;10.106;2023-07-28T16:08:21;24.80;1.00
1011;DHT22;494;48.744;10.106;2023-07-28T16:10:49;24.90;1.00
1011;DHT22;494;48.744;10.106;2023-07-28T16:13:22;24.90;43.50
1011;DHT22;494;48.744;10.106;2023-07-28T16:15:54;25.00;99.90
1011;DHT22;494;48.744;10.106;2023-07-28T16:18:24;25.30;99.90
1011;DHT22;494;48.744;10.106;2023-07-28T16:20:53;25.60;1.00
1011;DHT22;494;48.744;10.106;2023-07-28T16:23:25;25.80;1.00
1011;DHT22;494;48.744;10.106;2023-07-28T16:25:56;25.80;1.00
1011;DHT22;494;48.744;10.106;2023-07-28T16:28:27;25.80;1.00
1011;DHT22;494;48.744;10.106;2023-07-28T16:30:57;25.70;12.00
1011;DHT22;494;48.744;10.106;2023-07-28T16:33:26;25.60;1.00
1011;DHT22;494;48.744;10.106;2023-07-28T16:35:55;25.60;1.00
1011;DHT22;494;48.744;10.106;2023-07-28T16:38:26;25.50;1.00